الصفحة الرئيسية
METAR-TAF:

METAR-TAF

مطار :

إيركوتسك, روسيا

دائرة عرض: 52-16N, خط طول: 104-19E, ارتفاع: 513 متر

مراقبة الطقس الحالي

تاريخ ووقت الإصدار 17 دقيقة قبل الساعة 11:30UTC
ريح 6 عقدة من الشمال
درجة الحرارة -13°درجة مئوية
الرطوبة 78%
ضغط 1037 hPa
الرؤية 10 كم أو أكثر
الغيوم لا تقل 1500 م ولا وجود لمزنة ركامية السحاب الأسود

METAR: UIII 251130Z 36003MPS CAVOK M13/M16 Q1037 R30/810350 NOSIG RMK QFE732/0976

زمن: 19:47 (11:47 UTC)

توقعات

تاريخ ووقت الإصدار 47 دقيقة قبل الساعة 11:00UTC
التوقعات صالحة من25 الساعة 12 UTC إلى 26 الساعة 12 UTC
ريح 6 عقدة من الشمال الغربي
الرؤية 10 كم أو أكثر
أصبح
من 25 الساعة 15 UTC إلى 25 الساعة 17 UTC
غيوم مفككة على ارتفاع 400 قدم
مؤقت
من 25 الساعة 18 UTC إلى 26 الساعة 03 UTC
الرؤية: 0500 متر
على ارتفاع 100 قدم
ضباب مجمِّد
أصبح
من 26 الساعة 03 UTC إلى 26 الساعة 05 UTC
غيوم مفككة على ارتفاع 3000 قدم, مزنة ركامية.
زخات ثلجية خفيفة

TAF: UIII 251100Z 2512/2612 32003MPS 9999 NSC BECMG 2515/2517 BKN004 TEMPO 2518/2603 0500 FZFG VV001 BECMG 2603/2605 -SHSN BKN030CB

أرصاد الطقس والتوقعات من أكثر من 4000 مطار (تقارير الطقس للمطار METAR والتنبؤ بالطقس بالمطارTAF).

المحطات المتاحة هي النقط الصفراء والحمراء على الخريطة.

حرك المؤشر فوق النقطة لمعرفة اسم المحطة.

ثم انقر لمعرفة أرصاد وتوقعات الطقس.

لتغيير الخارطة: اضغط على الأزرار الخضراء مع رمز الصليب الأسود للتكبير. على الزر الأخضر مع شرطة للتصغير، أو على الأسهم الخضراء للخرائط المجاورة.


METAR-TAF: